sensor_id;sensor_type;location;lat;lon;timestamp;P1;durP1;ratioP1;P2;durP2;ratioP2
47009;SDS011;59230;54.164;-3.124;2022-10-20T00:00:32;29.05;;;5.13;;
47009;SDS011;59230;54.164;-3.124;2022-10-20T00:03:04;26.50;;;4.95;;
47009;SDS011;59230;54.164;-3.124;2022-10-20T00:05:33;27.88;;;4.93;;
47009;SDS011;59230;54.164;-3.124;2022-10-20T00:08:01;30.70;;;5.25;;
47009;SDS011;59230;54.164;-3.124;2022-10-20T00:10:28;24.33;;;5.07;;
47009;SDS011;59230;54.164;-3.124;2022-10-20T00:12:53;29.45;;;4.93;;
47009;SDS011;59230;54.164;-3.124;2022-10-20T00:15:18;26.00;;;5.30;;
47009;SDS011;59230;54.164;-3.124;2022-10-20T00:17:46;37.33;;;5.97;;
47009;SDS011;59230;54.164;-3.124;2022-10-20T00:20:12;24.35;;;4.90;;
47009;SDS011;59230;54.164;-3.124;2022-10-20T00:22:39;24.35;;;5.05;;
47009;SDS011;59230;54.164;-3.124;2022-10-20T00:25:06;27.80;;;6.32;;
47009;SDS011;59230;54.164;-3.124;2022-10-20T00:27:35;27.40;;;5.20;;
47009;SDS011;59230;54.164;-3.124;2022-10-20T00:30:00;23.73;;;5.68;;
47009;SDS011;59230;54.164;-3.124;2022-10-20T00:32:27;30.60;;;5.97;;
47009;SDS011;59230;54.164;-3.124;2022-10-20T00:34:55;27.60;;;5.82;;
47009;SDS011;59230;54.164;-3.124;2022-10-20T00:37:22;31.23;;;6.05;;
47009;SDS011;59230;54.164;-3.124;2022-10-20T00:39:48;33.83;;;7.07;;
47009;SDS011;59230;54.164;-3.124;2022-10-20T00:42:17;31.52;;;7.00;;
47009;SDS011;59230;54.164;-3.124;2022-10-20T00:47:22;30.73;;;6.45;;
47009;SDS011;59230;54.164;-3.124;2022-10-20T00:49:50;33.90;;;7.35;;
47009;SDS011;59230;54.164;-3.124;2022-10-20T00:52:19;34.60;;;7.72;;
47009;SDS011;59230;54.164;-3.124;2022-10-20T00:54:46;37.03;;;8.02;;
47009;SDS011;59230;54.164;-3.124;2022-10-20T00:57:13;30.42;;;8.23;;
47009;SDS011;59230;54.164;-3.124;2022-10-20T00:59:41;34.45;;;8.00;;
47009;SDS011;59230;54.164;-3.124;2022-10-20T01:02:06;42.30;;;8.88;;
47009;SDS011;59230;54.164;-3.124;2022-10-20T01:04:34;42.00;;;8.98;;
47009;SDS011;59230;54.164;-3.124;2022-10-20T01:07:00;36.72;;;8.85;;
47009;SDS011;59230;54.164;-3.124;2022-10-20T01:09:27;29.48;;;9.55;;
47009;SDS011;59230;54.164;-3.124;2022-10-20T01:11:57;36.70;;;9.27;;
47009;SDS011;59230;54.164;-3.124;2022-10-20T01:17:39;42.13;;;9.52;;
47009;SDS011;59230;54.164;-3.124;2022-10-20T01:29:12;35.33;;;10.05;;
47009;SDS011;59230;54.164;-3.124;2022-10-20T01:32:24;38.85;;;11.05;;
47009;SDS011;59230;54.164;-3.124;2022-10-20T01:34:59;41.78;;;11.35;;
47009;SDS011;59230;54.164;-3.124;2022-10-20T01:40:12;33.25;;;10.93;;
47009;SDS011;59230;54.164;-3.124;2022-10-20T01:42:50;54.58;;;11.27;;
47009;SDS011;59230;54.164;-3.124;2022-10-20T01:45:20;40.35;;;11.75;;
47009;SDS011;59230;54.164;-3.124;2022-10-20T01:47:47;46.15;;;11.43;;
47009;SDS011;59230;54.164;-3.124;2022-10-20T01:50:15;48.53;;;12.38;;
47009;SDS011;59230;54.164;-3.124;2022-10-20T01:52:43;55.13;;;12.18;;
47009;SDS011;59230;54.164;-3.124;2022-10-20T01:55:13;44.72;;;12.40;;
47009;SDS011;59230;54.164;-3.124;2022-10-20T01:57:57;44.33;;;12.07;;
47009;SDS011;59230;54.164;-3.124;2022-10-20T02:00:29;52.22;;;13.00;;
47009;SDS011;59230;54.164;-3.124;2022-10-20T02:08:22;45.67;;;13.45;;
47009;SDS011;59230;54.164;-3.124;2022-10-20T02:11:00;46.90;;;13.17;;
47009;SDS011;59230;54.164;-3.124;2022-10-20T02:13:30;47.40;;;14.15;;
47009;SDS011;59230;54.164;-3.124;2022-10-20T02:15:59;49.55;;;13.07;;
47009;SDS011;59230;54.164;-3.124;2022-10-20T02:18:33;49.20;;;14.30;;
47009;SDS011;59230;54.164;-3.124;2022-10-20T02:21:11;47.33;;;13.50;;
47009;SDS011;59230;54.164;-3.124;2022-10-20T02:23:38;45.75;;;14.80;;
47009;SDS011;59230;54.164;-3.124;2022-10-20T02:26:12;44.38;;;14.18;;
47009;SDS011;59230;54.164;-3.124;2022-10-20T02:28:41;52.85;;;15.13;;
47009;SDS011;59230;54.164;-3.124;2022-10-20T02:31:12;49.17;;;16.63;;
47009;SDS011;59230;54.164;-3.124;2022-10-20T02:33:39;50.20;;;15.07;;
47009;SDS011;59230;54.164;-3.124;2022-10-20T02:36:11;57.17;;;15.73;;
47009;SDS011;59230;54.164;-3.124;2022-10-20T02:38:41;51.30;;;16.02;;
47009;SDS011;59230;54.164;-3.124;2022-10-20T02:41:08;52.80;;;15.98;;
47009;SDS011;59230;54.164;-3.124;2022-10-20T02:43:35;43.58;;;15.43;;
47009;SDS011;59230;54.164;-3.124;2022-10-20T02:46:00;40.42;;;16.35;;
47009;SDS011;59230;54.164;-3.124;2022-10-20T02:48:26;51.35;;;15.68;;
47009;SDS011;59230;54.164;-3.124;2022-10-20T02:50:53;55.30;;;15.95;;
47009;SDS011;59230;54.164;-3.124;2022-10-20T02:53:20;65.32;;;18.77;;
47009;SDS011;59230;54.164;-3.124;2022-10-20T02:55:46;75.53;;;22.10;;
47009;SDS011;59230;54.164;-3.124;2022-10-20T02:58:15;69.63;;;21.80;;
47009;SDS011;59230;54.164;-3.124;2022-10-20T03:00:42;68.50;;;22.48;;
47009;SDS011;59230;54.164;-3.124;2022-10-20T03:03:09;64.88;;;22.50;;
47009;SDS011;59230;54.164;-3.124;2022-10-20T03:05:42;74.68;;;23.70;;
47009;SDS011;59230;54.164;-3.124;2022-10-20T03:08:09;70.53;;;24.40;;
47009;SDS011;59230;54.164;-3.124;2022-10-20T03:10:38;79.95;;;25.67;;
47009;SDS011;59230;54.164;-3.124;2022-10-20T03:13:08;66.50;;;23.67;;
47009;SDS011;59230;54.164;-3.124;2022-10-20T03:15:34;69.13;;;24.77;;
47009;SDS011;59230;54.164;-3.124;2022-10-20T03:18:01;82.80;;;26.45;;
47009;SDS011;59230;54.164;-3.124;2022-10-20T03:20:28;79.75;;;26.38;;
47009;SDS011;59230;54.164;-3.124;2022-10-20T03:22:55;70.10;;;26.42;;
47009;SDS011;59230;54.164;-3.124;2022-10-20T03:25:20;83.32;;;26.67;;
47009;SDS011;59230;54.164;-3.124;2022-10-20T03:27:46;82.13;;;25.77;;
47009;SDS011;59230;54.164;-3.124;2022-10-20T03:30:15;74.88;;;26.42;;
47009;SDS011;59230;54.164;-3.124;2022-10-20T03:32:42;60.63;;;24.55;;
47009;SDS011;59230;54.164;-3.124;2022-10-20T03:35:10;70.68;;;26.73;;
47009;SDS011;59230;54.164;-3.124;2022-10-20T03:37:36;86.97;;;27.42;;
47009;SDS011;59230;54.164;-3.124;2022-10-20T03:40:04;70.53;;;26.10;;
47009;SDS011;59230;54.164;-3.124;2022-10-20T03:42:30;87.78;;;27.63;;
47009;SDS011;59230;54.164;-3.124;2022-10-20T03:44:57;86.07;;;26.90;;
47009;SDS011;59230;54.164;-3.124;2022-10-20T03:47:24;81.00;;;26.40;;
47009;SDS011;59230;54.164;-3.124;2022-10-20T03:49:51;81.25;;;27.52;;
47009;SDS011;59230;54.164;-3.124;2022-10-20T03:52:16;70.72;;;26.52;;
47009;SDS011;59230;54.164;-3.124;2022-10-20T03:54:41;83.25;;;27.25;;
47009;SDS011;59230;54.164;-3.124;2022-10-20T03:57:09;88.38;;;27.42;;
47009;SDS011;59230;54.164;-3.124;2022-10-20T03:59:37;75.80;;;27.67;;
47009;SDS011;59230;54.164;-3.124;2022-10-20T04:02:03;78.95;;;26.17;;
47009;SDS011;59230;54.164;-3.124;2022-10-20T04:04:29;72.72;;;26.73;;
47009;SDS011;59230;54.164;-3.124;2022-10-20T04:06:55;79.78;;;27.52;;
47009;SDS011;59230;54.164;-3.124;2022-10-20T04:09:20;91.93;;;26.83;;
47009;SDS011;59230;54.164;-3.124;2022-10-20T04:11:46;79.45;;;26.48;;
47009;SDS011;59230;54.164;-3.124;2022-10-20T04:14:11;68.07;;;26.20;;
47009;SDS011;59230;54.164;-3.124;2022-10-20T04:16:38;70.88;;;27.08;;
47009;SDS011;59230;54.164;-3.124;2022-10-20T04:19:07;62.40;;;26.00;;
47009;SDS011;59230;54.164;-3.124;2022-10-20T04:21:34;60.63;;;24.38;;
47009;SDS011;59230;54.164;-3.124;2022-10-20T04:24:00;59.45;;;23.35;;
47009;SDS011;59230;54.164;-3.124;2022-10-20T04:26:26;62.13;;;23.48;;
47009;SDS011;59230;54.164;-3.124;2022-10-20T04:28:51;64.03;;;23.55;;
47009;SDS011;59230;54.164;-3.124;2022-10-20T04:31:24;55.28;;;22.70;;
47009;SDS011;59230;54.164;-3.124;2022-10-20T04:33:49;62.00;;;23.50;;
47009;SDS011;59230;54.164;-3.124;2022-10-20T04:36:15;56.47;;;24.35;;
47009;SDS011;59230;54.164;-3.124;2022-10-20T04:38:42;66.80;;;24.73;;
47009;SDS011;59230;54.164;-3.124;2022-10-20T04:41:13;59.17;;;24.25;;
47009;SDS011;59230;54.164;-3.124;2022-10-20T04:43:39;63.85;;;23.30;;
47009;SDS011;59230;54.164;-3.124;2022-10-20T04:46:09;59.60;;;22.20;;
47009;SDS011;59230;54.164;-3.124;2022-10-20T04:48:36;71.90;;;23.02;;
47009;SDS011;59230;54.164;-3.124;2022-10-20T04:51:06;52.22;;;21.45;;
47009;SDS011;59230;54.164;-3.124;2022-10-20T04:53:34;68.65;;;23.00;;
47009;SDS011;59230;54.164;-3.124;2022-10-20T04:56:00;58.47;;;22.80;;
47009;SDS011;59230;54.164;-3.124;2022-10-20T04:58:27;55.78;;;22.95;;
47009;SDS011;59230;54.164;-3.124;2022-10-20T05:00:59;59.85;;;23.00;;
47009;SDS011;59230;54.164;-3.124;2022-10-20T05:06:06;49.63;;;19.60;;
47009;SDS011;59230;54.164;-3.124;2022-10-20T05:08:42;52.92;;;20.27;;
47009;SDS011;59230;54.164;-3.124;2022-10-20T05:11:09;56.47;;;19.70;;
47009;SDS011;59230;54.164;-3.124;2022-10-20T05:13:42;53.40;;;18.15;;
47009;SDS011;59230;54.164;-3.124;2022-10-20T05:16:09;52.75;;;18.08;;
47009;SDS011;59230;54.164;-3.124;2022-10-20T05:18:37;51.53;;;19.08;;
47009;SDS011;59230;54.164;-3.124;2022-10-20T05:21:07;40.85;;;17.35;;
47009;SDS011;59230;54.164;-3.124;2022-10-20T05:23:33;45.15;;;18.17;;
47009;SDS011;59230;54.164;-3.124;2022-10-20T05:26:03;41.85;;;17.63;;
47009;SDS011;59230;54.164;-3.124;2022-10-20T05:28:30;47.03;;;17.55;;
47009;SDS011;59230;54.164;-3.124;2022-10-20T05:30:55;45.85;;;16.27;;
47009;SDS011;59230;54.164;-3.124;2022-10-20T05:33:25;36.58;;;16.30;;
47009;SDS011;59230;54.164;-3.124;2022-10-20T05:35:51;34.92;;;16.58;;
47009;SDS011;59230;54.164;-3.124;2022-10-20T05:38:17;39.60;;;17.33;;
47009;SDS011;59230;54.164;-3.124;2022-10-20T05:40:42;38.30;;;17.00;;
47009;SDS011;59230;54.164;-3.124;2022-10-20T05:43:08;48.33;;;18.35;;
47009;SDS011;59230;54.164;-3.124;2022-10-20T05:45:35;44.70;;;16.48;;
47009;SDS011;59230;54.164;-3.124;2022-10-20T05:48:04;43.58;;;15.70;;
47009;SDS011;59230;54.164;-3.124;2022-10-20T05:50:30;32.38;;;14.38;;
47009;SDS011;59230;54.164;-3.124;2022-10-20T05:52:57;31.83;;;14.25;;
47009;SDS011;59230;54.164;-3.124;2022-10-20T05:55:22;31.88;;;13.90;;
47009;SDS011;59230;54.164;-3.124;2022-10-20T05:57:51;40.95;;;15.27;;
47009;SDS011;59230;54.164;-3.124;2022-10-20T06:00:18;38.13;;;16.70;;
47009;SDS011;59230;54.164;-3.124;2022-10-20T06:02:55;30.95;;;16.05;;
47009;SDS011;59230;54.164;-3.124;2022-10-20T06:05:21;29.70;;;15.35;;
47009;SDS011;59230;54.164;-3.124;2022-10-20T06:07:47;39.00;;;15.40;;
47009;SDS011;59230;54.164;-3.124;2022-10-20T06:10:13;33.38;;;14.40;;
47009;SDS011;59230;54.164;-3.124;2022-10-20T06:12:39;40.83;;;19.17;;
47009;SDS011;59230;54.164;-3.124;2022-10-20T06:15:06;51.83;;;25.08;;
47009;SDS011;59230;54.164;-3.124;2022-10-20T06:17:32;53.95;;;23.77;;
47009;SDS011;59230;54.164;-3.124;2022-10-20T06:19:58;60.25;;;26.02;;
47009;SDS011;59230;54.164;-3.124;2022-10-20T06:22:25;294.40;;;124.95;;
47009;SDS011;59230;54.164;-3.124;2022-10-20T06:24:50;66.20;;;29.85;;
47009;SDS011;59230;54.164;-3.124;2022-10-20T06:27:17;53.53;;;23.80;;
47009;SDS011;59230;54.164;-3.124;2022-10-20T06:29:44;47.17;;;19.83;;
47009;SDS011;59230;54.164;-3.124;2022-10-20T06:32:10;42.22;;;18.58;;
47009;SDS011;59230;54.164;-3.124;2022-10-20T06:34:35;52.35;;;20.92;;
47009;SDS011;59230;54.164;-3.124;2022-10-20T06:37:01;41.75;;;17.98;;
47009;SDS011;59230;54.164;-3.124;2022-10-20T06:39:28;43.40;;;18.73;;
47009;SDS011;59230;54.164;-3.124;2022-10-20T06:41:55;42.55;;;17.92;;
47009;SDS011;59230;54.164;-3.124;2022-10-20T06:44:22;39.72;;;17.73;;
47009;SDS011;59230;54.164;-3.124;2022-10-20T06:46:51;49.92;;;17.80;;
47009;SDS011;59230;54.164;-3.124;2022-10-20T06:49:17;41.85;;;18.05;;
47009;SDS011;59230;54.164;-3.124;2022-10-20T06:51:44;51.53;;;21.45;;
47009;SDS011;59230;54.164;-3.124;2022-10-20T06:54:11;45.65;;;19.02;;
47009;SDS011;59230;54.164;-3.124;2022-10-20T06:56:39;43.88;;;16.92;;
47009;SDS011;59230;54.164;-3.124;2022-10-20T06:59:06;49.67;;;19.27;;
47009;SDS011;59230;54.164;-3.124;2022-10-20T07:01:36;42.70;;;18.13;;
47009;SDS011;59230;54.164;-3.124;2022-10-20T07:04:04;45.03;;;20.27;;
47009;SDS011;59230;54.164;-3.124;2022-10-20T07:06:32;56.38;;;18.75;;
47009;SDS011;59230;54.164;-3.124;2022-10-20T07:09:01;43.90;;;16.70;;
47009;SDS011;59230;54.164;-3.124;2022-10-20T07:11:29;41.38;;;17.60;;
47009;SDS011;59230;54.164;-3.124;2022-10-20T07:13:58;46.83;;;18.92;;
47009;SDS011;59230;54.164;-3.124;2022-10-20T07:16:26;36.40;;;16.40;;
47009;SDS011;59230;54.164;-3.124;2022-10-20T07:18:55;39.60;;;16.75;;
47009;SDS011;59230;54.164;-3.124;2022-10-20T07:21:22;44.45;;;17.15;;
47009;SDS011;59230;54.164;-3.124;2022-10-20T07:23:54;38.38;;;17.20;;
47009;SDS011;59230;54.164;-3.124;2022-10-20T07:26:28;39.40;;;17.13;;
47009;SDS011;59230;54.164;-3.124;2022-10-20T07:28:57;44.03;;;17.73;;
47009;SDS011;59230;54.164;-3.124;2022-10-20T07:31:27;43.22;;;17.10;;
47009;SDS011;59230;54.164;-3.124;2022-10-20T07:33:56;32.38;;;15.85;;
47009;SDS011;59230;54.164;-3.124;2022-10-20T07:36:28;44.40;;;17.35;;
47009;SDS011;59230;54.164;-3.124;2022-10-20T07:38:57;40.88;;;16.45;;
47009;SDS011;59230;54.164;-3.124;2022-10-20T07:41:25;35.28;;;15.20;;
47009;SDS011;59230;54.164;-3.124;2022-10-20T07:43:52;35.17;;;16.20;;
47009;SDS011;59230;54.164;-3.124;2022-10-20T07:46:18;34.65;;;16.35;;
47009;SDS011;59230;54.164;-3.124;2022-10-20T07:48:44;34.13;;;15.65;;
47009;SDS011;59230;54.164;-3.124;2022-10-20T07:53:59;34.65;;;18.15;;
47009;SDS011;59230;54.164;-3.124;2022-10-20T07:56:34;41.63;;;17.80;;
47009;SDS011;59230;54.164;-3.124;2022-10-20T07:59:04;122.00;;;53.00;;
47009;SDS011;59230;54.164;-3.124;2022-10-20T08:01:32;58.63;;;25.23;;
47009;SDS011;59230;54.164;-3.124;2022-10-20T08:03:59;56.38;;;26.27;;
47009;SDS011;59230;54.164;-3.124;2022-10-20T08:06:26;63.00;;;31.25;;
47009;SDS011;59230;54.164;-3.124;2022-10-20T08:08:52;40.10;;;20.65;;
47009;SDS011;59230;54.164;-3.124;2022-10-20T08:11:21;56.75;;;25.90;;
47009;SDS011;59230;54.164;-3.124;2022-10-20T08:13:46;36.55;;;17.30;;
47009;SDS011;59230;54.164;-3.124;2022-10-20T08:16:14;44.88;;;21.23;;
47009;SDS011;59230;54.164;-3.124;2022-10-20T08:18:43;42.97;;;17.05;;
47009;SDS011;59230;54.164;-3.124;2022-10-20T08:21:18;34.22;;;20.25;;
47009;SDS011;59230;54.164;-3.124;2022-10-20T08:23:47;38.53;;;16.80;;
47009;SDS011;59230;54.164;-3.124;2022-10-20T08:26:24;35.25;;;15.90;;
47009;SDS011;59230;54.164;-3.124;2022-10-20T08:28:52;36.88;;;15.20;;
47009;SDS011;59230;54.164;-3.124;2022-10-20T08:31:20;38.95;;;16.38;;
47009;SDS011;59230;54.164;-3.124;2022-10-20T08:33:46;37.75;;;14.35;;
47009;SDS011;59230;54.164;-3.124;2022-10-20T08:36:12;32.22;;;14.40;;
47009;SDS011;59230;54.164;-3.124;2022-10-20T08:38:41;29.65;;;14.07;;
47009;SDS011;59230;54.164;-3.124;2022-10-20T08:41:17;37.10;;;15.90;;
47009;SDS011;59230;54.164;-3.124;2022-10-20T08:43:55;33.78;;;15.40;;
47009;SDS011;59230;54.164;-3.124;2022-10-20T08:46:28;39.95;;;15.60;;
47009;SDS011;59230;54.164;-3.124;2022-10-20T08:49:00;35.45;;;15.57;;
47009;SDS011;59230;54.164;-3.124;2022-10-20T08:51:31;44.40;;;15.77;;
47009;SDS011;59230;54.164;-3.124;2022-10-20T08:54:10;37.72;;;15.77;;
47009;SDS011;59230;54.164;-3.124;2022-10-20T08:56:43;48.25;;;17.25;;
47009;SDS011;59230;54.164;-3.124;2022-10-20T09:01:58;41.85;;;16.67;;
47009;SDS011;59230;54.164;-3.124;2022-10-20T09:04:48;47.42;;;18.13;;
47009;SDS011;59230;54.164;-3.124;2022-10-20T09:07:34;44.85;;;18.90;;
47009;SDS011;59230;54.164;-3.124;2022-10-20T09:13:00;54.63;;;24.60;;
47009;SDS011;59230;54.164;-3.124;2022-10-20T09:15:29;48.95;;;20.58;;
47009;SDS011;59230;54.164;-3.124;2022-10-20T09:20:31;76.82;;;33.20;;
47009;SDS011;59230;54.164;-3.124;2022-10-20T09:23:30;40.22;;;19.77;;
47009;SDS011;59230;54.164;-3.124;2022-10-20T09:26:14;46.17;;;16.88;;
47009;SDS011;59230;54.164;-3.124;2022-10-20T09:28:48;44.97;;;21.67;;
47009;SDS011;59230;54.164;-3.124;2022-10-20T09:31:20;46.67;;;24.25;;
47009;SDS011;59230;54.164;-3.124;2022-10-20T09:33:58;60.35;;;39.65;;
47009;SDS011;59230;54.164;-3.124;2022-10-20T09:36:27;64.95;;;36.33;;
47009;SDS011;59230;54.164;-3.124;2022-10-20T09:38:57;52.38;;;29.63;;
47009;SDS011;59230;54.164;-3.124;2022-10-20T09:41:27;44.15;;;23.75;;
47009;SDS011;59230;54.164;-3.124;2022-10-20T09:44:08;54.83;;;36.70;;
47009;SDS011;59230;54.164;-3.124;2022-10-20T09:46:45;54.10;;;28.55;;
47009;SDS011;59230;54.164;-3.124;2022-10-20T09:49:24;66.97;;;33.70;;
47009;SDS011;59230;54.164;-3.124;2022-10-20T09:52:02;41.05;;;17.50;;
47009;SDS011;59230;54.164;-3.124;2022-10-20T09:54:44;31.27;;;16.42;;
47009;SDS011;59230;54.164;-3.124;2022-10-20T09:57:15;35.30;;;16.90;;
47009;SDS011;59230;54.164;-3.124;2022-10-20T09:59:45;29.13;;;13.93;;
47009;SDS011;59230;54.164;-3.124;2022-10-20T10:04:42;34.20;;;19.67;;
47009;SDS011;59230;54.164;-3.124;2022-10-20T10:12:22;60.22;;;32.25;;
47009;SDS011;59230;54.164;-3.124;2022-10-20T10:14:58;44.33;;;24.52;;
47009;SDS011;59230;54.164;-3.124;2022-10-20T10:19:55;78.47;;;50.35;;
47009;SDS011;59230;54.164;-3.124;2022-10-20T10:22:20;61.60;;;36.17;;
47009;SDS011;59230;54.164;-3.124;2022-10-20T10:24:47;130.38;;;85.45;;
47009;SDS011;59230;54.164;-3.124;2022-10-20T10:27:23;70.93;;;38.45;;
47009;SDS011;59230;54.164;-3.124;2022-10-20T10:29:55;68.38;;;42.22;;
47009;SDS011;59230;54.164;-3.124;2022-10-20T10:32:26;57.13;;;32.47;;
47009;SDS011;59230;54.164;-3.124;2022-10-20T10:37:55;85.57;;;57.72;;
47009;SDS011;59230;54.164;-3.124;2022-10-20T10:40:26;54.47;;;34.10;;
47009;SDS011;59230;54.164;-3.124;2022-10-20T10:48:46;36.50;;;19.00;;
47009;SDS011;59230;54.164;-3.124;2022-10-20T10:51:58;29.00;;;16.60;;
47009;SDS011;59230;54.164;-3.124;2022-10-20T10:54:42;19.48;;;11.48;;
47009;SDS011;59230;54.164;-3.124;2022-10-20T10:57:46;22.05;;;12.30;;
47009;SDS011;59230;54.164;-3.124;2022-10-20T11:00:19;16.30;;;10.07;;
47009;SDS011;59230;54.164;-3.124;2022-10-20T11:03:14;28.30;;;17.50;;
47009;SDS011;59230;54.164;-3.124;2022-10-20T11:06:32;17.38;;;9.32;;
47009;SDS011;59230;54.164;-3.124;2022-10-20T11:28:38;21.50;;;12.40;;
47009;SDS011;59230;54.164;-3.124;2022-10-20T11:31:30;21.35;;;12.20;;
47009;SDS011;59230;54.164;-3.124;2022-10-20T11:37:05;21.05;;;14.85;;
47009;SDS011;59230;54.164;-3.124;2022-10-20T11:48:26;16.65;;;11.98;;
47009;SDS011;59230;54.164;-3.124;2022-10-20T12:02:51;36.00;;;25.05;;
47009;SDS011;59230;54.164;-3.124;2022-10-20T12:19:16;57.53;;;40.78;;
47009;SDS011;59230;54.164;-3.124;2022-10-20T12:21:57;58.55;;;42.38;;
47009;SDS011;59230;54.164;-3.124;2022-10-20T12:34:49;22.88;;;14.90;;
47009;SDS011;59230;54.164;-3.124;2022-10-20T12:37:26;24.23;;;14.02;;
47009;SDS011;59230;54.164;-3.124;2022-10-20T12:42:46;11.20;;;6.32;;
47009;SDS011;59230;54.164;-3.124;2022-10-20T12:47:46;25.67;;;11.30;;
47009;SDS011;59230;54.164;-3.124;2022-10-20T12:53:12;10.88;;;7.20;;
47009;SDS011;59230;54.164;-3.124;2022-10-20T12:55:43;11.85;;;7.40;;
47009;SDS011;59230;54.164;-3.124;2022-10-20T13:05:57;15.65;;;8.00;;
47009;SDS011;59230;54.164;-3.124;2022-10-20T13:08:31;9.52;;;6.25;;
47009;SDS011;59230;54.164;-3.124;2022-10-20T13:14:27;17.90;;;6.60;;
47009;SDS011;59230;54.164;-3.124;2022-10-20T13:17:44;13.80;;;6.38;;
47009;SDS011;59230;54.164;-3.124;2022-10-20T13:19:53;11.05;;;6.40;;
47009;SDS011;59230;54.164;-3.124;2022-10-20T13:22:26;11.05;;;6.60;;
47009;SDS011;59230;54.164;-3.124;2022-10-20T13:25:13;14.65;;;7.97;;
47009;SDS011;59230;54.164;-3.124;2022-10-20T13:27:41;13.18;;;4.80;;
47009;SDS011;59230;54.164;-3.124;2022-10-20T13:30:09;10.77;;;4.25;;
47009;SDS011;59230;54.164;-3.124;2022-10-20T13:38:57;13.07;;;5.53;;
47009;SDS011;59230;54.164;-3.124;2022-10-20T13:41:28;8.05;;;4.25;;
47009;SDS011;59230;54.164;-3.124;2022-10-20T13:52:43;6.30;;;4.38;;
47009;SDS011;59230;54.164;-3.124;2022-10-20T13:55:16;10.70;;;4.05;;
47009;SDS011;59230;54.164;-3.124;2022-10-20T13:57:56;8.70;;;3.88;;
47009;SDS011;59230;54.164;-3.124;2022-10-20T14:00:30;9.45;;;3.58;;
47009;SDS011;59230;54.164;-3.124;2022-10-20T14:02:58;8.45;;;3.25;;
47009;SDS011;59230;54.164;-3.124;2022-10-20T14:05:35;5.63;;;3.17;;
47009;SDS011;59230;54.164;-3.124;2022-10-20T14:13:25;6.80;;;3.45;;
47009;SDS011;59230;54.164;-3.124;2022-10-20T14:15:57;11.85;;;5.28;;
47009;SDS011;59230;54.164;-3.124;2022-10-20T14:21:06;10.73;;;4.15;;
47009;SDS011;59230;54.164;-3.124;2022-10-20T14:23:42;6.63;;;3.53;;
47009;SDS011;59230;54.164;-3.124;2022-10-20T14:26:17;5.57;;;3.38;;
47009;SDS011;59230;54.164;-3.124;2022-10-20T14:28:52;9.40;;;3.60;;
47009;SDS011;59230;54.164;-3.124;2022-10-20T14:31:24;7.32;;;3.83;;
47009;SDS011;59230;54.164;-3.124;2022-10-20T14:33:51;5.93;;;3.17;;
47009;SDS011;59230;54.164;-3.124;2022-10-20T14:36:24;5.22;;;3.40;;
47009;SDS011;59230;54.164;-3.124;2022-10-20T14:38:55;20.50;;;5.55;;
47009;SDS011;59230;54.164;-3.124;2022-10-20T14:41:32;10.38;;;4.80;;
47009;SDS011;59230;54.164;-3.124;2022-10-20T14:44:05;8.88;;;3.88;;
47009;SDS011;59230;54.164;-3.124;2022-10-20T14:46:35;9.63;;;4.53;;
47009;SDS011;59230;54.164;-3.124;2022-10-20T14:49:13;9.48;;;4.45;;
47009;SDS011;59230;54.164;-3.124;2022-10-20T14:51:41;12.05;;;4.10;;
47009;SDS011;59230;54.164;-3.124;2022-10-20T14:59:51;9.10;;;4.18;;
47009;SDS011;59230;54.164;-3.124;2022-10-20T15:02:25;6.38;;;4.22;;
47009;SDS011;59230;54.164;-3.124;2022-10-20T15:04:55;6.45;;;3.72;;
47009;SDS011;59230;54.164;-3.124;2022-10-20T15:10:06;10.50;;;4.25;;
47009;SDS011;59230;54.164;-3.124;2022-10-20T15:12:43;6.03;;;4.47;;
47009;SDS011;59230;54.164;-3.124;2022-10-20T15:17:44;7.68;;;5.63;;
47009;SDS011;59230;54.164;-3.124;2022-10-20T15:23:06;10.73;;;6.25;;
47009;SDS011;59230;54.164;-3.124;2022-10-20T15:31:21;11.05;;;6.93;;
47009;SDS011;59230;54.164;-3.124;2022-10-20T15:33:51;16.27;;;7.63;;
47009;SDS011;59230;54.164;-3.124;2022-10-20T15:36:24;12.30;;;6.90;;
47009;SDS011;59230;54.164;-3.124;2022-10-20T15:39:01;17.33;;;7.47;;
47009;SDS011;59230;54.164;-3.124;2022-10-20T15:41:30;14.90;;;6.38;;
47009;SDS011;59230;54.164;-3.124;2022-10-20T15:44:21;15.63;;;8.13;;
47009;SDS011;59230;54.164;-3.124;2022-10-20T15:46:49;13.98;;;8.00;;
47009;SDS011;59230;54.164;-3.124;2022-10-20T15:49:21;12.33;;;7.33;;
47009;SDS011;59230;54.164;-3.124;2022-10-20T15:51:49;10.15;;;5.93;;
47009;SDS011;59230;54.164;-3.124;2022-10-20T15:54:16;15.00;;;7.10;;
47009;SDS011;59230;54.164;-3.124;2022-10-20T15:56:45;16.95;;;8.15;;
47009;SDS011;59230;54.164;-3.124;2022-10-20T15:59:11;15.05;;;7.60;;
47009;SDS011;59230;54.164;-3.124;2022-10-20T16:01:40;13.15;;;6.43;;
47009;SDS011;59230;54.164;-3.124;2022-10-20T16:04:38;21.92;;;13.10;;
47009;SDS011;59230;54.164;-3.124;2022-10-20T16:06:59;38.85;;;19.73;;
47009;SDS011;59230;54.164;-3.124;2022-10-20T16:09:26;43.92;;;23.48;;
47009;SDS011;59230;54.164;-3.124;2022-10-20T16:11:52;28.05;;;15.48;;
47009;SDS011;59230;54.164;-3.124;2022-10-20T16:14:18;40.60;;;19.17;;
47009;SDS011;59230;54.164;-3.124;2022-10-20T16:16:44;83.65;;;43.28;;
47009;SDS011;59230;54.164;-3.124;2022-10-20T16:19:11;249.13;;;109.57;;
47009;SDS011;59230;54.164;-3.124;2022-10-20T16:21:36;72.97;;;39.25;;
47009;SDS011;59230;54.164;-3.124;2022-10-20T16:24:03;59.85;;;29.10;;
47009;SDS011;59230;54.164;-3.124;2022-10-20T16:26:30;32.72;;;18.00;;
47009;SDS011;59230;54.164;-3.124;2022-10-20T16:29:14;19.98;;;10.98;;
47009;SDS011;59230;54.164;-3.124;2022-10-20T16:31:42;22.25;;;10.18;;
47009;SDS011;59230;54.164;-3.124;2022-10-20T16:34:09;11.70;;;6.43;;
47009;SDS011;59230;54.164;-3.124;2022-10-20T16:36:39;15.05;;;6.72;;
47009;SDS011;59230;54.164;-3.124;2022-10-20T16:39:05;17.05;;;6.75;;
47009;SDS011;59230;54.164;-3.124;2022-10-20T16:41:32;16.98;;;7.35;;
47009;SDS011;59230;54.164;-3.124;2022-10-20T16:44:05;23.60;;;9.43;;
47009;SDS011;59230;54.164;-3.124;2022-10-20T16:46:33;17.60;;;7.45;;
47009;SDS011;59230;54.164;-3.124;2022-10-20T16:49:01;11.00;;;6.47;;
47009;SDS011;59230;54.164;-3.124;2022-10-20T16:51:29;16.75;;;8.02;;
47009;SDS011;59230;54.164;-3.124;2022-10-20T16:53:57;21.50;;;10.43;;
47009;SDS011;59230;54.164;-3.124;2022-10-20T16:56:24;16.48;;;8.65;;
47009;SDS011;59230;54.164;-3.124;2022-10-20T16:58:50;23.15;;;10.45;;
47009;SDS011;59230;54.164;-3.124;2022-10-20T17:01:19;26.67;;;11.30;;
47009;SDS011;59230;54.164;-3.124;2022-10-20T17:03:49;17.75;;;9.02;;
47009;SDS011;59230;54.164;-3.124;2022-10-20T17:06:19;18.90;;;8.35;;
47009;SDS011;59230;54.164;-3.124;2022-10-20T17:08:48;29.33;;;13.50;;
47009;SDS011;59230;54.164;-3.124;2022-10-20T17:11:14;45.67;;;15.98;;
47009;SDS011;59230;54.164;-3.124;2022-10-20T17:13:43;66.35;;;18.67;;
47009;SDS011;59230;54.164;-3.124;2022-10-20T17:16:10;25.08;;;11.70;;
47009;SDS011;59230;54.164;-3.124;2022-10-20T17:18:39;43.33;;;16.67;;
47009;SDS011;59230;54.164;-3.124;2022-10-20T17:21:08;27.95;;;12.70;;
47009;SDS011;59230;54.164;-3.124;2022-10-20T17:23:50;12.63;;;9.00;;
47009;SDS011;59230;54.164;-3.124;2022-10-20T17:26:21;19.30;;;8.98;;
47009;SDS011;59230;54.164;-3.124;2022-10-20T17:28:58;29.23;;;11.50;;
47009;SDS011;59230;54.164;-3.124;2022-10-20T17:31:26;18.35;;;8.75;;
47009;SDS011;59230;54.164;-3.124;2022-10-20T17:33:55;28.45;;;9.55;;
47009;SDS011;59230;54.164;-3.124;2022-10-20T17:36:28;12.10;;;5.75;;